Time;durP1;ratioP1;P1;durP2;ratioP2;P2;SDS_P1;SDS_P2;PMS_P1;PMS_P2;Temp;Humidity;BMP_temperature;BMP_pressure;BME280_temperature;BME280_humidity;BME280_pressure;Samples;Min_cycle;Max_cycle;Signal;HPM_P1;HPM_P2
2022/07/03 00:01:23;;;;;;;3.58;1.73;;;19.10;99.90;;;;;;5093689;28;20071;-48
2022/07/03 00:03:49;;;;;;;4.20;2.15;;;19.10;99.90;;;;;;5095887;27;20066;-49
2022/07/03 00:06:15;;;;;;;5.78;1.90;;;19.00;99.90;;;;;;5133046;27;20087;-47
2022/07/03 00:08:42;;;;;;;4.95;2.08;;;19.00;99.90;;;;;;5111582;27;20462;-47
2022/07/03 00:11:09;;;;;;;4.55;2.00;;;19.00;99.90;;;;;;5133381;27;20049;-47
2022/07/03 00:13:35;;;;;;;5.15;1.80;;;18.90;99.90;;;;;;5114743;27;20046;-51
2022/07/03 00:16:01;;;;;;;4.97;2.28;;;18.90;99.90;;;;;;5114424;27;20045;-49
2022/07/03 00:18:26;;;;;;;4.90;2.25;;;18.80;99.90;;;;;;5104039;28;20126;-47
2022/07/03 00:21:02;;;;;;;3.90;1.80;;;18.80;99.90;;;;;;5112235;28;20566;-47
2022/07/03 00:23:33;;;;;;;3.60;1.90;;;18.70;99.90;;;;;;5112987;27;20027;-44
2022/07/03 00:26:02;;;;;;;5.15;2.63;;;18.60;99.90;;;;;;5112960;28;20041;-47
2022/07/03 00:28:30;;;;;;;5.10;2.10;;;18.60;99.90;;;;;;5098127;28;20039;-49
2022/07/03 00:30:58;;;;;;;3.83;2.10;;;18.50;99.90;;;;;;5093608;28;20051;-47
2022/07/03 00:33:27;;;;;;;5.13;2.10;;;18.40;99.90;;;;;;5094216;28;20048;-49
2022/07/03 00:35:54;;;;;;;5.13;2.25;;;18.40;99.90;;;;;;5112467;28;20445;-47
2022/07/03 00:38:21;;;;;;;4.43;2.33;;;18.40;99.90;;;;;;5112134;28;20051;-46
2022/07/03 00:40:47;;;;;;;5.28;2.60;;;18.30;99.90;;;;;;5093768;28;20421;-47
2022/07/03 00:43:15;;;;;;;6.32;2.28;;;18.30;99.90;;;;;;5112172;28;20035;-46
2022/07/03 00:45:46;;;;;;;3.80;2.10;;;18.20;99.90;;;;;;5093474;28;20067;-47
2022/07/03 00:48:13;;;;;;;4.85;2.40;;;18.20;99.90;;;;;;5110460;28;20159;-50
2022/07/03 00:50:45;;;;;;;6.18;2.55;;;18.10;99.90;;;;;;5111709;28;20534;-48
2022/07/03 00:53:13;;;;;;;5.03;2.35;;;18.10;99.90;;;;;;5112142;28;20394;-48
2022/07/03 00:55:41;;;;;;;6.05;2.50;;;18.00;99.90;;;;;;5111509;28;20074;-46
2022/07/03 00:58:08;;;;;;;4.10;2.28;;;17.90;99.90;;;;;;5111852;28;20035;-47
2022/07/03 01:00:40;;;;;;;3.60;2.15;;;18.00;99.90;;;;;;5111900;28;20043;-46
2022/07/03 01:03:06;;;;;;;4.72;2.80;;;17.90;99.90;;;;;;5111825;27;20062;-48
2022/07/03 01:05:37;;;;;;;3.70;2.28;;;17.90;99.90;;;;;;5111287;28;20551;-50
2022/07/03 01:08:07;;;;;;;5.25;2.47;;;17.90;99.90;;;;;;5111759;27;20027;-47
2022/07/03 01:10:55;;;;;;;4.22;2.40;;;17.80;99.90;;;;;;5111826;28;20542;-48
2022/07/03 01:13:33;;;;;;;4.63;2.60;;;17.80;99.90;;;;;;5111524;28;20054;-48
2022/07/03 01:16:09;;;;;;;5.80;2.60;;;17.70;99.90;;;;;;5111408;28;20119;-48
2022/07/03 01:18:46;;;;;;;4.65;2.80;;;17.70;99.90;;;;;;5111801;28;20044;-47
2022/07/03 01:21:48;;;;;;;4.55;2.63;;;17.60;99.90;;;;;;5092723;28;20047;-50
2022/07/03 01:24:43;;;;;;;4.00;2.70;;;17.60;99.90;;;;;;5112384;27;20046;-47
2022/07/03 01:27:18;;;;;;;4.88;2.67;;;17.60;99.90;;;;;;5132078;27;20391;-47
2022/07/03 01:29:50;;;;;;;4.70;3.00;;;17.60;99.90;;;;;;5131823;27;20482;-48
2022/07/03 01:32:15;;;;;;;5.03;2.80;;;17.50;99.90;;;;;;5131888;27;20687;-46
2022/07/03 01:34:44;;;;;;;5.22;2.63;;;17.60;99.90;;;;;;5109079;28;20122;-47
2022/07/03 01:37:15;;;;;;;4.55;2.97;;;17.60;99.90;;;;;;5110099;28;20097;-48
2022/07/03 01:39:44;;;;;;;5.57;3.30;;;17.50;99.90;;;;;;5110918;28;20055;-49
2022/07/03 01:42:12;;;;;;;6.05;3.47;;;17.20;99.90;;;;;;5111194;28;20031;-48
2022/07/03 01:44:40;;;;;;;6.00;3.30;;;17.00;99.90;;;;;;5093021;28;20040;-47
2022/07/03 01:47:06;;;;;;;6.75;3.30;;;17.00;99.90;;;;;;5110558;28;20398;-48
2022/07/03 01:49:34;;;;;;;5.65;3.22;;;17.10;99.90;;;;;;5110893;27;20043;-46
2022/07/03 01:52:02;;;;;;;5.60;3.35;;;17.10;99.90;;;;;;5110923;28;20035;-49
2022/07/03 01:54:29;;;;;;;5.45;3.80;;;17.10;99.90;;;;;;5111043;28;20394;-51
2022/07/03 01:56:55;;;;;;;7.75;3.50;;;17.10;99.90;;;;;;5110824;28;20040;-48
2022/07/03 01:59:21;;;;;;;4.93;3.47;;;17.00;99.90;;;;;;5109651;28;20076;-47
2022/07/03 02:02:09;;;;;;;5.63;3.50;;;16.80;99.90;;;;;;5094258;27;20118;-47
2022/07/03 02:04:53;;;;;;;4.35;3.15;;;16.90;99.90;;;;;;5110378;28;20051;-48
2022/07/03 02:07:36;;;;;;;6.78;3.50;;;16.90;99.90;;;;;;5110783;28;20474;-47
2022/07/03 02:10:08;;;;;;;10.23;3.63;;;16.90;99.90;;;;;;5091095;28;20045;-47
2022/07/03 02:12:46;;;;;;;6.80;4.30;;;16.70;99.90;;;;;;5110506;28;20088;-48
2022/07/03 02:15:16;;;;;;;9.40;3.97;;;16.80;99.90;;;;;;5110552;28;20035;-50
2022/07/03 02:17:44;;;;;;;5.85;4.03;;;16.80;99.90;;;;;;5110214;28;20035;-50
2022/07/03 02:20:11;;;;;;;7.07;4.25;;;16.80;99.90;;;;;;5110688;28;20035;-47
2022/07/03 02:22:46;;;;;;;6.18;3.83;;;16.70;99.90;;;;;;5110411;28;20035;-51
2022/07/03 02:25:36;;;;;;;6.07;3.97;;;16.70;99.90;;;;;;5109923;28;20043;-48
2022/07/03 02:28:20;;;;;;;6.20;4.20;;;16.70;99.90;;;;;;5092222;28;20100;-49
2022/07/03 02:30:51;;;;;;;7.18;4.18;;;16.70;99.90;;;;;;5092177;28;20130;-50
2022/07/03 02:33:21;;;;;;;5.63;4.13;;;16.60;99.90;;;;;;5110499;28;20364;-48
2022/07/03 02:35:48;;;;;;;5.40;4.10;;;16.40;99.90;;;;;;5110638;28;20540;-49
2022/07/03 02:38:21;;;;;;;5.90;4.57;;;16.50;99.90;;;;;;5110449;28;20100;-50
2022/07/03 02:41:09;;;;;;;9.30;4.45;;;16.50;99.90;;;;;;5110683;28;20135;-46
2022/07/03 02:43:47;;;;;;;5.30;3.97;;;16.50;99.90;;;;;;5091838;28;20071;-48
2022/07/03 02:49:48;;;;;;;6.70;4.88;;;16.50;99.90;;;;;;5110225;28;20127;-48
2022/07/03 02:52:40;;;;;;;6.65;4.93;;;16.50;99.90;;;;;;5110363;28;20071;-47
2022/07/03 02:55:33;;;;;;;7.22;5.18;;;16.50;99.90;;;;;;5110155;28;20093;-47
2022/07/03 02:58:21;;;;;;;7.10;5.45;;;16.50;99.90;;;;;;5110282;28;20121;-51
2022/07/03 03:00:59;;;;;;;7.55;5.45;;;16.50;99.90;;;;;;5110284;28;20047;-49
2022/07/03 03:03:30;;;;;;;8.85;5.18;;;16.50;99.90;;;;;;5110173;28;20035;-46
2022/07/03 03:06:02;;;;;;;6.75;5.30;;;16.50;99.90;;;;;;5109880;28;20108;-49
2022/07/03 03:08:57;;;;;;;8.15;5.15;;;16.50;99.90;;;;;;5091488;28;20031;-51
2022/07/03 03:11:26;;;;;;;6.22;5.35;;;16.40;99.90;;;;;;5109924;28;20085;-47
2022/07/03 03:13:59;;;;;;;7.60;5.40;;;16.30;99.90;;;;;;5110003;28;20051;-47
2022/07/03 03:16:25;;;;;;;7.15;4.90;;;16.30;99.90;;;;;;5109881;28;20127;-49
2022/07/03 03:18:51;;;;;;;7.30;5.35;;;16.40;99.90;;;;;;5109892;28;20097;-50
2022/07/03 03:21:19;;;;;;;7.07;5.40;;;16.40;99.90;;;;;;5110062;28;20035;-49
2022/07/03 03:23:49;;;;;;;7.47;5.50;;;16.30;99.90;;;;;;5109958;28;20379;-47
2022/07/03 03:26:22;;;;;;;8.18;5.88;;;16.40;99.90;;;;;;5109778;28;20032;-46
2022/07/03 03:28:49;;;;;;;6.33;5.47;;;16.40;99.90;;;;;;5110235;28;20039;-48
2022/07/03 03:31:16;;;;;;;6.47;5.38;;;16.30;99.90;;;;;;5109834;28;20578;-49
2022/07/03 03:33:49;;;;;;;8.80;5.43;;;16.30;99.90;;;;;;5109923;28;20068;-47
2022/07/03 03:36:17;;;;;;;11.48;6.07;;;16.30;99.90;;;;;;5109855;28;20175;-50
2022/07/03 03:38:43;;;;;;;6.65;5.57;;;16.30;99.90;;;;;;5113079;28;20077;-46
2022/07/03 03:41:09;;;;;;;7.68;6.18;;;16.40;99.90;;;;;;5113405;28;20474;-47
2022/07/03 03:43:35;;;;;;;7.57;5.97;;;16.30;99.90;;;;;;5095211;28;20032;-48
2022/07/03 03:46:02;;;;;;;7.85;5.85;;;16.40;99.90;;;;;;5113216;28;20066;-43
2022/07/03 03:48:28;;;;;;;6.13;5.50;;;16.30;99.90;;;;;;5113353;28;20032;-47
2022/07/03 03:50:55;;;;;;;9.13;6.30;;;16.30;99.90;;;;;;5113310;28;20074;-48
2022/07/03 03:53:23;;;;;;;7.35;6.57;;;16.30;99.90;;;;;;5113394;28;20118;-47
2022/07/03 03:56:10;;;;;;;8.70;5.65;;;16.40;99.90;;;;;;5094619;28;20039;-48
2022/07/03 03:58:39;;;;;;;8.38;5.80;;;16.30;99.90;;;;;;5113090;28;20487;-47
2022/07/03 04:01:06;;;;;;;6.97;5.93;;;16.30;99.90;;;;;;5113028;27;20032;-48
2022/07/03 04:03:32;;;;;;;8.73;5.70;;;16.30;99.90;;;;;;5113288;27;20036;-46
2022/07/03 04:05:58;;;;;;;8.98;6.45;;;16.20;99.90;;;;;;5110843;27;20079;-47
2022/07/03 04:08:26;;;;;;;8.07;5.60;;;16.20;99.90;;;;;;5112732;28;20067;-46
2022/07/03 04:10:51;;;;;;;6.57;5.60;;;16.10;99.90;;;;;;5112872;28;20039;-47
2022/07/03 04:13:21;;;;;;;7.60;5.75;;;16.10;99.90;;;;;;5112967;28;20398;-46
2022/07/03 04:15:48;;;;;;;7.65;6.28;;;16.10;99.90;;;;;;5112803;27;20202;-50
2022/07/03 04:18:14;;;;;;;7.82;6.05;;;16.00;99.90;;;;;;5112416;28;20036;-51
2022/07/03 04:20:40;;;;;;;10.13;6.38;;;16.10;99.90;;;;;;5112605;28;20031;-48
2022/07/03 04:23:06;;;;;;;8.85;6.07;;;16.00;99.90;;;;;;5112806;28;20035;-49
2022/07/03 04:25:32;;;;;;;8.20;6.15;;;16.10;99.90;;;;;;5112735;28;20075;-46
2022/07/03 04:27:58;;;;;;;7.53;6.40;;;16.00;99.90;;;;;;5111344;28;20042;-49
2022/07/03 04:30:23;;;;;;;8.98;5.72;;;15.90;99.90;;;;;;5077222;28;20043;-48
2022/07/03 04:32:49;;;;;;;7.03;6.10;;;15.80;99.90;;;;;;5112553;28;20043;-48
2022/07/03 04:35:16;;;;;;;6.68;5.82;;;15.80;99.90;;;;;;5112339;28;20031;-47
2022/07/03 04:37:42;;;;;;;7.18;5.82;;;15.90;99.90;;;;;;5112432;28;20040;-48
2022/07/03 04:40:09;;;;;;;7.20;6.20;;;15.80;99.90;;;;;;5112327;28;20401;-51
2022/07/03 04:42:34;;;;;;;8.15;5.88;;;15.90;99.90;;;;;;5112110;28;20046;-47
2022/07/03 04:45:01;;;;;;;8.20;5.03;;;15.80;99.90;;;;;;5112279;27;20024;-45
2022/07/03 04:47:26;;;;;;;8.00;5.63;;;15.70;99.90;;;;;;5111688;28;20042;-47
2022/07/03 04:49:52;;;;;;;7.85;6.07;;;15.90;99.90;;;;;;5112049;28;20542;-47
2022/07/03 04:52:18;;;;;;;8.23;6.00;;;15.90;99.90;;;;;;5112051;28;20066;-49
2022/07/03 04:54:43;;;;;;;11.05;5.88;;;15.90;99.90;;;;;;5111748;27;20394;-47
2022/07/03 04:57:09;;;;;;;7.60;5.78;;;15.90;99.90;;;;;;5112149;28;20047;-50
2022/07/03 04:59:35;;;;;;;9.00;6.30;;;16.10;99.90;;;;;;5111687;27;20081;-47
2022/07/03 05:02:01;;;;;;;9.70;6.40;;;16.10;99.90;;;;;;5111513;28;20039;-47
2022/07/03 05:04:26;;;;;;;9.40;6.15;;;16.00;99.90;;;;;;5111551;28;20096;-48
2022/07/03 05:06:52;;;;;;;8.27;6.10;;;16.10;99.90;;;;;;5112005;28;20207;-47
2022/07/03 05:09:18;;;;;;;7.28;5.20;;;16.30;99.90;;;;;;5111612;28;20036;-50
2022/07/03 05:11:44;;;;;;;9.00;6.32;;;16.20;99.90;;;;;;5127333;27;20039;-49
2022/07/03 05:14:10;;;;;;;11.32;6.47;;;16.40;99.90;;;;;;5132202;27;20409;-46
2022/07/03 05:16:35;;;;;;;6.50;5.80;;;16.40;99.90;;;;;;5131780;27;20117;-48
2022/07/03 05:19:02;;;;;;;11.63;6.60;;;16.40;99.90;;;;;;5132306;27;20031;-49
2022/07/03 05:21:27;;;;;;;7.95;6.47;;;16.70;99.90;;;;;;5131711;27;20398;-49
2022/07/03 05:23:53;;;;;;;8.88;6.20;;;16.70;99.90;;;;;;5131946;27;20030;-48
2022/07/03 05:26:19;;;;;;;9.50;5.80;;;16.80;99.90;;;;;;5132006;27;20081;-49
2022/07/03 05:28:45;;;;;;;9.60;6.45;;;16.90;99.90;;;;;;5113181;27;20375;-48
2022/07/03 05:31:11;;;;;;;6.57;5.55;;;17.00;99.90;;;;;;5113476;27;20122;-50
2022/07/03 05:33:37;;;;;;;6.85;4.95;;;17.10;99.90;;;;;;5131832;27;20177;-48
2022/07/03 05:36:03;;;;;;;6.88;4.82;;;17.10;99.90;;;;;;5131812;27;20469;-47
2022/07/03 05:41:14;;;;;;;6.50;4.95;;;17.40;99.90;;;;;;5131249;27;20100;-45
2022/07/03 05:43:40;;;;;;;9.50;4.45;;;17.50;99.90;;;;;;5124915;27;20053;-49
2022/07/03 05:46:06;;;;;;;7.18;3.97;;;17.60;99.90;;;;;;5110741;28;20428;-47
2022/07/03 05:48:32;;;;;;;7.03;4.45;;;17.60;99.90;;;;;;5110847;28;20042;-48
2022/07/03 05:50:57;;;;;;;5.78;3.78;;;17.60;99.90;;;;;;5111034;28;20077;-47
2022/07/03 05:53:23;;;;;;;7.15;3.92;;;17.70;99.90;;;;;;5111439;28;20367;-47
2022/07/03 05:55:49;;;;;;;5.35;3.65;;;17.70;99.90;;;;;;5111026;28;20428;-45
2022/07/03 05:58:15;;;;;;;10.95;3.67;;;17.80;99.90;;;;;;5111025;28;20039;-49
2022/07/03 06:00:41;;;;;;;5.70;3.42;;;18.00;99.90;;;;;;5109742;28;20035;-51
2022/07/03 06:03:07;;;;;;;6.07;3.70;;;18.10;99.90;;;;;;5110570;27;20063;-48
2022/07/03 06:05:33;;;;;;;7.20;2.92;;;18.20;99.90;;;;;;5110611;28;20102;-52
2022/07/03 06:07:59;;;;;;;7.85;2.88;;;18.40;99.90;;;;;;5110703;28;20066;-48
2022/07/03 06:10:25;;;;;;;7.45;3.30;;;18.40;99.90;;;;;;5110856;28;20032;-46
2022/07/03 06:12:51;;;;;;;5.15;3.10;;;18.50;99.90;;;;;;5091003;28;20044;-46
2022/07/03 06:15:17;;;;;;;6.60;3.20;;;18.50;99.90;;;;;;5110502;28;20039;-50
2022/07/03 06:17:43;;;;;;;5.45;2.55;;;18.60;99.90;;;;;;5110013;28;20036;-51
2022/07/03 06:20:10;;;;;;;6.50;2.70;;;18.50;99.90;;;;;;5110588;27;20044;-50
2022/07/03 06:22:36;;;;;;;3.47;2.00;;;18.50;99.90;;;;;;5110889;28;20570;-47
2022/07/03 06:25:03;;;;;;;4.28;1.95;;;18.50;99.90;;;;;;5105747;28;20035;-45
2022/07/03 06:27:28;;;;;;;3.03;1.83;;;18.60;99.90;;;;;;5110612;28;20256;-47
2022/07/03 06:29:54;;;;;;;3.40;1.80;;;18.80;99.90;;;;;;5109691;28;20151;-45
2022/07/03 06:32:20;;;;;;;2.75;1.15;;;18.90;99.90;;;;;;5110100;28;20031;-47
2022/07/03 06:34:46;;;;;;;3.75;1.23;;;19.10;99.90;;;;;;5109677;28;20048;-44
2022/07/03 06:37:12;;;;;;;3.60;1.30;;;19.30;99.90;;;;;;5109309;28;20168;-46
2022/07/03 06:39:38;;;;;;;4.40;1.30;;;19.40;99.90;;;;;;5104839;28;20138;-47
2022/07/03 06:42:04;;;;;;;3.28;1.40;;;19.50;99.90;;;;;;5107221;28;20467;-49
2022/07/03 06:44:30;;;;;;;4.53;1.27;;;19.50;99.90;;;;;;5104524;28;20031;-48
2022/07/03 06:46:56;;;;;;;3.03;1.30;;;19.60;99.90;;;;;;5105073;28;20040;-47
2022/07/03 06:49:23;;;;;;;4.63;1.17;;;19.70;99.90;;;;;;5104167;28;20047;-46
2022/07/03 06:51:48;;;;;;;6.15;1.30;;;19.60;99.90;;;;;;5102646;28;20483;-46
2022/07/03 06:54:14;;;;;;;4.05;1.15;;;19.60;99.90;;;;;;5105068;28;20040;-48
2022/07/03 06:56:42;;;;;;;2.75;1.00;;;19.50;99.90;;;;;;5089895;28;20176;-48
2022/07/03 06:59:08;;;;;;;2.88;1.20;;;19.40;99.90;;;;;;5108919;28;20363;-47
2022/07/03 07:01:34;;;;;;;4.38;1.23;;;19.20;99.90;;;;;;5089554;28;20028;-46
2022/07/03 07:03:59;;;;;;;5.45;1.63;;;19.20;99.90;;;;;;5090392;28;20036;-46
2022/07/03 07:06:25;;;;;;;5.32;1.23;;;19.20;99.90;;;;;;5108026;28;20049;-48
2022/07/03 07:08:51;;;;;;;4.03;1.50;;;19.20;99.90;;;;;;5107449;28;20501;-48
2022/07/03 07:11:17;;;;;;;4.22;1.80;;;19.30;99.90;;;;;;5109805;28;20031;-46
2022/07/03 07:13:42;;;;;;;6.63;1.80;;;19.30;99.90;;;;;;5112511;28;20040;-50
2022/07/03 07:16:08;;;;;;;4.88;1.67;;;19.20;99.90;;;;;;5111683;28;20036;-47
2022/07/03 07:18:34;;;;;;;5.38;1.65;;;19.10;99.90;;;;;;5107701;28;20032;-47
2022/07/03 07:21:00;;;;;;;5.43;1.60;;;19.20;99.90;;;;;;5105531;27;20040;-48
2022/07/03 07:23:26;;;;;;;6.40;1.90;;;19.40;99.90;;;;;;5109645;27;20073;-45
2022/07/03 07:25:52;;;;;;;5.43;1.70;;;19.50;99.90;;;;;;5105963;27;20040;-47
2022/07/03 07:28:18;;;;;;;5.78;1.70;;;19.80;99.90;;;;;;5107509;28;20382;-50
2022/07/03 07:30:44;;;;;;;5.28;1.40;;;19.80;99.90;;;;;;5107266;28;20035;-50
2022/07/03 07:33:10;;;;;;;7.85;1.70;;;19.90;99.90;;;;;;5104940;27;20092;-48
2022/07/03 07:35:36;;;;;;;5.32;1.50;;;20.00;99.90;;;;;;5109901;28;20054;-47
2022/07/03 07:38:02;;;;;;;3.33;1.23;;;20.00;99.90;;;;;;5108992;27;20035;-50
2022/07/03 07:40:28;;;;;;;4.65;1.63;;;19.90;99.90;;;;;;5111088;28;20502;-48
2022/07/03 07:42:54;;;;;;;5.15;1.73;;;19.90;99.90;;;;;;5093072;28;20482;-46
2022/07/03 07:45:20;;;;;;;3.83;1.30;;;19.90;99.90;;;;;;5111394;27;20031;-44
2022/07/03 07:47:45;;;;;;;4.97;1.13;;;19.90;99.90;;;;;;5110791;27;20032;-49
2022/07/03 07:50:11;;;;;;;4.18;1.50;;;19.80;99.90;;;;;;5110353;28;20035;-46
2022/07/03 07:52:37;;;;;;;3.08;1.10;;;19.80;99.90;;;;;;5112948;27;20047;-48
2022/07/03 07:55:05;;;;;;;3.85;1.23;;;20.00;99.90;;;;;;5110066;28;20089;-51
2022/07/03 07:57:38;;;;;;;6.63;1.30;;;20.00;99.90;;;;;;5111105;28;20122;-47
2022/07/03 08:00:15;;;;;;;4.93;1.38;;;19.90;99.90;;;;;;5111242;27;20032;-50
2022/07/03 08:05:35;;;;;;;3.60;1.00;;;20.10;99.90;;;;;;5109831;27;20112;-47
2022/07/03 08:08:11;;;;;;;6.28;1.25;;;19.90;99.90;;;;;;5111722;28;20051;-51
2022/07/03 08:10:38;;;;;;;2.53;0.82;;;20.00;99.90;;;;;;5111825;28;20040;-52
2022/07/03 08:13:04;;;;;;;3.38;0.77;;;20.00;99.90;;;;;;5109901;27;20040;-48
2022/07/03 08:15:30;;;;;;;3.22;0.88;;;20.10;99.90;;;;;;5105523;28;20036;-47
2022/07/03 08:17:56;;;;;;;4.35;1.17;;;20.30;99.90;;;;;;5106040;28;20053;-51
2022/07/03 08:20:21;;;;;;;4.47;0.90;;;20.20;99.90;;;;;;5101743;27;20079;-48
2022/07/03 08:22:47;;;;;;;4.03;0.70;;;20.40;99.90;;;;;;5096112;28;20032;-48
2022/07/03 08:25:13;;;;;;;2.03;0.45;;;20.50;99.90;;;;;;5102536;28;20036;-44
2022/07/03 08:27:38;;;;;;;2.63;0.75;;;20.60;99.90;;;;;;5085354;28;20028;-46
2022/07/03 08:30:05;;;;;;;2.55;0.57;;;20.70;99.90;;;;;;5102125;27;20821;-47
2022/07/03 08:32:30;;;;;;;4.80;0.90;;;20.60;99.90;;;;;;5103509;28;20453;-51
2022/07/03 08:34:56;;;;;;;4.90;0.73;;;20.70;99.90;;;;;;5101625;28;20115;-48
2022/07/03 08:37:22;;;;;;;3.70;0.88;;;20.60;99.90;;;;;;5084421;28;20039;-46
2022/07/03 08:39:47;;;;;;;2.30;0.77;;;20.50;99.90;;;;;;5100813;28;20097;-49
2022/07/03 08:42:15;;;;;;;2.63;0.82;;;20.60;99.90;;;;;;5101125;27;20036;-47
2022/07/03 08:44:42;;;;;;;4.40;0.80;;;20.80;99.90;;;;;;5102138;28;20046;-48
2022/07/03 08:47:11;;;;;;;4.43;1.00;;;20.80;99.90;;;;;;5099752;28;20438;-48
2022/07/03 08:49:38;;;;;;;5.10;1.02;;;20.80;99.90;;;;;;5103990;28;20036;-48
2022/07/03 08:52:07;;;;;;;4.85;0.90;;;20.90;99.90;;;;;;5103989;28;20066;-48
2022/07/03 08:54:33;;;;;;;4.03;0.82;;;20.90;99.90;;;;;;5103450;27;20356;-47
2022/07/03 08:57:00;;;;;;;3.60;0.90;;;21.00;99.90;;;;;;5103485;28;20060;-47
2022/07/03 08:59:35;;;;;;;2.22;0.70;;;21.10;99.90;;;;;;5067894;28;20139;-49
2022/07/03 09:02:04;;;;;;;2.25;0.70;;;21.20;99.90;;;;;;5103293;28;20040;-48
2022/07/03 09:04:30;;;;;;;2.47;0.63;;;21.40;99.90;;;;;;5102487;28;20031;-48
2022/07/03 09:06:58;;;;;;;3.90;0.90;;;21.50;99.90;;;;;;5103340;28;20471;-47
2022/07/03 09:09:24;;;;;;;3.08;0.93;;;21.60;99.90;;;;;;5102285;28;20067;-49
2022/07/03 09:11:50;;;;;;;3.47;0.90;;;21.70;99.90;;;;;;5082212;28;20067;-47
2022/07/03 09:14:16;;;;;;;2.60;0.70;;;22.00;99.90;;;;;;5101581;27;20031;-49
2022/07/03 09:16:42;;;;;;;2.83;0.68;;;22.10;99.90;;;;;;5102145;27;20035;-48
2022/07/03 09:19:08;;;;;;;3.03;0.70;;;22.10;99.90;;;;;;5083884;28;20039;-49
2022/07/03 09:21:42;;;;;;;6.70;0.60;;;22.30;99.90;;;;;;5100558;28;20043;-49
2022/07/03 09:24:09;;;;;;;1.92;0.68;;;22.60;99.90;;;;;;5100434;28;20500;-50
2022/07/03 09:26:36;;;;;;;2.35;0.68;;;22.60;99.90;;;;;;5102210;28;20052;-47
2022/07/03 09:29:03;;;;;;;2.58;0.60;;;22.70;99.90;;;;;;5102044;27;20054;-49
2022/07/03 09:31:30;;;;;;;2.45;0.70;;;22.80;99.90;;;;;;5103177;28;20114;-48
2022/07/03 09:34:09;;;;;;;2.50;0.65;;;22.90;99.90;;;;;;5085903;28;20036;-47
2022/07/03 09:36:38;;;;;;;5.93;0.90;;;23.00;99.90;;;;;;5101271;28;20032;-47
2022/07/03 09:39:21;;;;;;;5.13;0.75;;;22.90;99.90;;;;;;5102839;28;20119;-51
2022/07/03 09:41:54;;;;;;;3.90;0.77;;;22.90;99.90;;;;;;5102314;27;20036;-47
2022/07/03 09:44:40;;;;;;;2.92;0.98;;;22.90;99.90;;;;;;5102120;28;20090;-47
2022/07/03 09:47:10;;;;;;;4.10;0.80;;;22.40;99.90;;;;;;5101851;28;20089;-47
2022/07/03 09:49:51;;;;;;;2.97;0.68;;;22.10;99.90;;;;;;5101300;28;20036;-47
2022/07/03 09:52:28;;;;;;;3.42;0.60;;;22.10;99.90;;;;;;5099730;28;20118;-48
2022/07/03 09:54:58;;;;;;;2.13;0.50;;;22.50;99.90;;;;;;5102460;28;20031;-49
2022/07/03 09:57:26;;;;;;;1.17;0.50;;;22.90;99.90;;;;;;5102801;27;20509;-47
2022/07/03 10:00:11;;;;;;;2.55;0.60;;;22.90;99.90;;;;;;5101715;28;20551;-48
2022/07/03 10:02:55;;;;;;;2.08;0.63;;;23.00;99.60;;;;;;5080698;28;20085;-46
2022/07/03 10:05:22;;;;;;;0.88;0.35;;;23.30;99.90;;;;;;5100329;27;20116;-47
2022/07/03 10:07:53;;;;;;;2.55;0.52;;;23.50;99.90;;;;;;5102339;28;20085;-49
2022/07/03 10:10:21;;;;;;;1.10;0.50;;;23.20;99.00;;;;;;5102273;28;20046;-50
2022/07/03 10:12:51;;;;;;;2.75;0.50;;;23.30;99.30;;;;;;5100654;28;20078;-50
2022/07/03 10:15:18;;;;;;;2.80;0.70;;;22.70;99.50;;;;;;5101744;28;20063;-47
2022/07/03 10:17:48;;;;;;;3.70;0.60;;;22.90;99.90;;;;;;5101188;28;20047;-49
2022/07/03 10:20:15;;;;;;;3.30;0.80;;;23.10;99.90;;;;;;5098899;28;20043;-49
2022/07/03 10:22:46;;;;;;;3.17;0.90;;;23.10;99.90;;;;;;5102289;28;20035;-47
2022/07/03 10:25:13;;;;;;;4.40;0.80;;;23.20;99.90;;;;;;5103371;28;20067;-49
2022/07/03 10:27:39;;;;;;;3.25;0.95;;;23.00;99.90;;;;;;5106589;28;20042;-50
2022/07/03 10:30:06;;;;;;;4.15;0.77;;;23.40;99.90;;;;;;5105629;28;20035;-46
2022/07/03 10:32:33;;;;;;;3.05;0.80;;;23.70;99.90;;;;;;5100923;28;20042;-49
2022/07/03 10:35:02;;;;;;;5.18;1.00;;;23.70;99.90;;;;;;5102744;28;20072;-50
2022/07/03 10:37:45;;;;;;;4.50;0.90;;;23.70;99.90;;;;;;5086772;28;20040;-48
2022/07/03 10:46:14;;;;;;;4.88;1.00;;;23.70;99.90;;;;;;5109335;28;20445;-48
2022/07/03 10:48:58;;;;;;;3.80;0.70;;;23.70;99.90;;;;;;5112391;28;20035;-50
2022/07/03 10:51:25;;;;;;;4.20;1.08;;;23.80;99.90;;;;;;5110202;28;20118;-47
2022/07/03 10:54:12;;;;;;;2.85;0.55;;;23.30;99.90;;;;;;5094084;27;20082;-51
2022/07/03 10:57:16;;;;;;;3.83;0.90;;;23.40;99.90;;;;;;5114856;27;20096;-48
2022/07/03 10:59:45;;;;;;;7.45;1.17;;;23.00;99.90;;;;;;5070120;28;20079;-49
2022/07/03 11:02:33;;;;;;;4.80;0.95;;;22.60;99.90;;;;;;5124089;27;20066;-46
2022/07/03 11:04:59;;;;;;;5.32;1.20;;;22.40;99.90;;;;;;5116673;27;20515;-49
2022/07/03 11:07:33;;;;;;;6.50;1.05;;;22.50;99.90;;;;;;5135154;27;20035;-46
2022/07/03 11:10:10;;;;;;;5.78;1.50;;;22.40;99.90;;;;;;5135235;27;20047;-47
2022/07/03 11:12:58;;;;;;;6.32;1.38;;;22.70;99.90;;;;;;5114493;28;20066;-47
2022/07/03 11:15:44;;;;;;;4.95;1.00;;;22.50;99.90;;;;;;5114460;27;20102;-48
2022/07/03 11:18:34;;;;;;;3.40;0.90;;;22.70;99.90;;;;;;5095624;28;20114;-49
2022/07/03 11:21:12;;;;;;;7.68;3.10;;;22.90;99.90;;;;;;5114424;28;20383;-46
2022/07/03 11:24:02;;;;;;;51.97;29.60;;;23.10;99.90;;;;;;5079107;28;20039;-45
2022/07/03 11:26:27;;;;;;;15.15;9.07;;;23.70;99.90;;;;;;5114381;28;20034;-47
2022/07/03 11:28:54;;;;;;;14.60;7.03;;;23.90;99.90;;;;;;5114207;28;20470;-48
2022/07/03 11:31:22;;;;;;;90.95;51.92;;;23.70;99.90;;;;;;5113771;28;20041;-49
2022/07/03 11:33:51;;;;;;;28.63;13.43;;;23.30;99.90;;;;;;5114049;28;20027;-48
2022/07/03 11:36:17;;;;;;;11.95;4.82;;;22.70;99.90;;;;;;5114176;28;20042;-47
2022/07/03 11:38:43;;;;;;;5.85;1.90;;;22.60;99.90;;;;;;5113877;28;20110;-46
2022/07/03 11:41:12;;;;;;;4.68;1.15;;;22.70;99.90;;;;;;5113480;27;20040;-48
2022/07/03 11:43:38;;;;;;;4.22;1.17;;;22.70;99.90;;;;;;5114042;27;20047;-48
2022/07/03 11:46:04;;;;;;;3.78;0.90;;;22.80;99.90;;;;;;5113873;28;20032;-46
2022/07/03 11:48:30;;;;;;;7.25;1.02;;;22.80;99.90;;;;;;5107853;27;20039;-48
2022/07/03 11:51:03;;;;;;;5.00;0.85;;;22.90;99.90;;;;;;5134042;27;20455;-50
2022/07/03 11:53:34;;;;;;;6.00;1.20;;;22.90;99.90;;;;;;5113942;27;20487;-50
2022/07/03 11:56:12;;;;;;;4.82;1.15;;;22.80;99.90;;;;;;5113947;28;20281;-49
2022/07/03 11:58:47;;;;;;;3.50;0.80;;;22.70;99.90;;;;;;5114194;27;20037;-48
2022/07/03 12:01:25;;;;;;;4.05;0.80;;;22.80;99.90;;;;;;5134106;27;20035;-47
2022/07/03 12:03:51;;;;;;;7.30;2.50;;;23.20;99.90;;;;;;5133883;27;20031;-47
2022/07/03 12:06:18;;;;;;;4.38;1.13;;;23.60;99.90;;;;;;5115135;27;20082;-50
2022/07/03 12:08:46;;;;;;;4.38;1.15;;;23.80;99.90;;;;;;5134044;27;20516;-47
2022/07/03 12:11:16;;;;;;;4.65;1.17;;;23.50;99.90;;;;;;5133314;27;20032;-48
2022/07/03 12:13:43;;;;;;;4.05;0.90;;;23.60;99.90;;;;;;5113488;27;20036;-45
2022/07/03 12:16:14;;;;;;;3.08;0.98;;;24.00;99.90;;;;;;5112812;28;20047;-50
2022/07/03 12:18:54;;;;;;;4.97;1.00;;;24.30;99.90;;;;;;5112865;27;20038;-49
2022/07/03 12:21:22;;;;;;;93.10;69.10;;;24.80;99.90;;;;;;5113414;27;20421;-49
2022/07/03 12:23:53;;;;;;;32.40;15.77;;;25.00;99.90;;;;;;5112870;28;20050;-47
2022/07/03 12:26:34;;;;;;;15.15;6.95;;;25.20;99.90;;;;;;5077974;28;20513;-47
2022/07/03 12:29:12;;;;;;;4.25;1.20;;;25.00;99.90;;;;;;5094337;28;20115;-51
2022/07/03 12:31:43;;;;;;;4.43;1.10;;;24.80;99.90;;;;;;5113156;28;20039;-48
2022/07/03 12:34:11;;;;;;;3.10;0.90;;;24.70;99.90;;;;;;5113005;28;20043;-47
2022/07/03 12:36:37;;;;;;;3.03;0.70;;;24.40;99.90;;;;;;5112847;27;20050;-48
2022/07/03 12:39:03;;;;;;;2.08;0.65;;;23.90;99.90;;;;;;5113906;27;20127;-47
2022/07/03 12:41:29;;;;;;;3.25;0.90;;;23.50;99.90;;;;;;5133224;27;20032;-48
2022/07/03 12:43:57;;;;;;;3.78;0.70;;;23.30;99.90;;;;;;5133253;27;20078;-47
2022/07/03 12:46:24;;;;;;;3.33;1.00;;;23.10;99.90;;;;;;5133310;27;20412;-50
2022/07/03 12:48:54;;;;;;;5.00;1.05;;;22.90;99.90;;;;;;5132488;27;20070;-47
2022/07/03 12:51:42;;;;;;;5.50;0.85;;;22.80;99.90;;;;;;5133291;27;20076;-47
2022/07/03 12:54:10;;;;;;;5.05;1.02;;;22.40;99.90;;;;;;5132698;27;20035;-48
2022/07/03 12:56:36;;;;;;;3.10;1.10;;;22.00;99.90;;;;;;5131664;27;20054;-46
2022/07/03 12:59:18;;;;;;;3.67;1.13;;;21.60;99.90;;;;;;5110921;28;20042;-48
2022/07/03 13:02:04;;;;;;;6.18;1.77;;;20.80;99.90;;;;;;5112036;28;20045;-44
2022/07/03 13:04:36;;;;;;;5.78;2.13;;;20.30;99.90;;;;;;5112284;28;20609;-45
2022/07/03 13:07:07;;;;;;;4.13;1.40;;;19.50;99.90;;;;;;5110881;28;20463;-45
2022/07/03 13:09:34;;;;;;;3.15;1.10;;;18.40;99.90;;;;;;5111882;28;20081;-45
2022/07/03 13:12:00;;;;;;;4.22;1.33;;;18.20;99.90;;;;;;5111984;28;20467;-47
2022/07/03 13:14:26;;;;;;;3.45;1.15;;;18.10;99.90;;;;;;5111995;28;20070;-47